Time;durP1;ratioP1;P1;durP2;ratioP2;P2;SDS_P1;SDS_P2;PMS_P1;PMS_P2;Temp;Humidity;BMP_temperature;BMP_pressure;BME280_temperature;BME280_humidity;BME280_pressure;Samples;Min_cycle;Max_cycle;Signal;HPM_P1;HPM_P2
2021/12/10 00:00:55;;;;;;;6.45;3.30;;;;;;;;;;5116256;28;20019;-73
2021/12/10 00:03:29;;;;;;;7.37;3.17;;;;;;;;;;5116288;28;20036;-70
2021/12/10 00:06:02;;;;;;;9.05;3.28;;;;;;;;;;5116168;28;20031;-73
2021/12/10 00:08:32;;;;;;;7.15;3.40;;;;;;;;;;5116327;28;20059;-73
2021/12/10 00:11:00;;;;;;;5.75;2.80;;;;;;;;;;5116003;28;20019;-72
2021/12/10 00:13:27;;;;;;;4.72;2.63;;;;;;;;;;5115870;28;20489;-69
2021/12/10 00:15:55;;;;;;;7.78;2.97;;;;;;;;;;5116096;28;20038;-71
2021/12/10 00:18:23;;;;;;;7.53;3.30;;;;;;;;;;5116091;28;20464;-70
2021/12/10 00:20:57;;;;;;;7.18;3.03;;;;;;;;;;5115645;28;20040;-71
2021/12/10 00:23:23;;;;;;;6.70;2.85;;;;;;;;;;5115826;28;20072;-72
2021/12/10 00:25:51;;;;;;;6.95;3.13;;;;;;;;;;5115845;28;20055;-71
2021/12/10 00:28:27;;;;;;;5.75;2.90;;;;;;;;;;5115730;28;20042;-72
2021/12/10 00:31:30;;;;;;;6.22;2.90;;;;;;;;;;5113291;28;20337;-71
2021/12/10 00:34:10;;;;;;;4.43;2.53;;;;;;;;;;5115643;28;20055;-71
2021/12/10 00:36:37;;;;;;;5.80;2.43;;;;;;;;;;5115646;28;20031;-72
2021/12/10 00:39:13;;;;;;;6.47;2.58;;;;;;;;;;5115585;28;20341;-70
2021/12/10 00:41:40;;;;;;;7.05;2.50;;;;;;;;;;5116081;28;20027;-71
2021/12/10 00:44:06;;;;;;;5.78;2.15;;;;;;;;;;5115255;28;20020;-73
2021/12/10 00:46:33;;;;;;;4.70;2.10;;;;;;;;;;5115489;28;20039;-73
2021/12/10 00:48:59;;;;;;;7.38;2.60;;;;;;;;;;5115432;28;20520;-72
2021/12/10 00:51:25;;;;;;;4.82;2.30;;;;;;;;;;5115415;28;20468;-72
2021/12/10 00:53:52;;;;;;;5.25;2.40;;;;;;;;;;5115054;28;20038;-70
2021/12/10 00:56:18;;;;;;;4.60;2.30;;;;;;;;;;5115512;28;20100;-70
2021/12/10 00:58:44;;;;;;;4.82;2.25;;;;;;;;;;5115208;28;20096;-72
2021/12/10 01:01:14;;;;;;;5.25;2.30;;;;;;;;;;5115066;28;20475;-72
2021/12/10 01:03:51;;;;;;;4.15;2.20;;;;;;;;;;5114481;28;20104;-73
2021/12/10 01:06:19;;;;;;;4.03;2.00;;;;;;;;;;5114995;28;20031;-69
2021/12/10 01:08:48;;;;;;;5.35;2.13;;;;;;;;;;5115031;28;20092;-73
2021/12/10 01:11:22;;;;;;;4.10;2.17;;;;;;;;;;5114933;28;20051;-72
2021/12/10 01:13:56;;;;;;;3.85;1.90;;;;;;;;;;5114616;28;20030;-73
2021/12/10 01:27:33;;;;;;;4.43;2.28;;;;;;;;;;5115028;28;20034;-73
2021/12/10 01:30:20;;;;;;;5.68;2.10;;;;;;;;;;5111552;28;20039;-70
2021/12/10 01:32:50;;;;;;;3.75;1.70;;;;;;;;;;5114562;28;20031;-73
2021/12/10 01:35:21;;;;;;;4.32;1.90;;;;;;;;;;5113261;28;20062;-70
2021/12/10 01:37:51;;;;;;;4.25;1.95;;;;;;;;;;5114557;28;20464;-71
2021/12/10 01:40:20;;;;;;;3.53;2.00;;;;;;;;;;5113348;28;20036;-71
2021/12/10 01:42:49;;;;;;;4.30;1.95;;;;;;;;;;5114370;28;20043;-73
2021/12/10 01:45:21;;;;;;;5.43;1.90;;;;;;;;;;5113894;27;20035;-72
2021/12/10 01:47:52;;;;;;;4.60;2.10;;;;;;;;;;5114529;28;20030;-73
2021/12/10 01:50:18;;;;;;;4.15;1.90;;;;;;;;;;5114607;28;20333;-71
2021/12/10 01:52:49;;;;;;;4.40;1.90;;;;;;;;;;5114204;28;20456;-72
2021/12/10 01:55:19;;;;;;;3.72;1.80;;;;;;;;;;5114230;28;20135;-72
2021/12/10 01:57:45;;;;;;;4.10;1.90;;;;;;;;;;5114285;28;20483;-71
2021/12/10 02:00:12;;;;;;;4.22;1.92;;;;;;;;;;5113973;28;20093;-73
2021/12/10 02:02:43;;;;;;;4.35;1.85;;;;;;;;;;5113998;28;20092;-71
2021/12/10 02:05:11;;;;;;;3.03;1.73;;;;;;;;;;5112873;28;20031;-72
2021/12/10 02:07:36;;;;;;;3.47;1.80;;;;;;;;;;5114164;28;20038;-73
2021/12/10 02:10:05;;;;;;;3.95;2.00;;;;;;;;;;5113941;28;20032;-72
2021/12/10 02:12:31;;;;;;;4.30;2.00;;;;;;;;;;5114391;28;20035;-70
2021/12/10 02:15:00;;;;;;;3.55;1.88;;;;;;;;;;5113583;28;20375;-72
2021/12/10 02:17:29;;;;;;;5.32;2.00;;;;;;;;;;5113971;28;20096;-70
2021/12/10 02:19:55;;;;;;;3.42;1.88;;;;;;;;;;5113770;28;20040;-70
2021/12/10 02:22:20;;;;;;;4.45;1.70;;;;;;;;;;5113997;28;20031;-70
2021/12/10 02:24:46;;;;;;;4.18;2.08;;;;;;;;;;5113428;28;20059;-70
2021/12/10 02:27:12;;;;;;;4.50;1.80;;;;;;;;;;5113875;28;20027;-72
2021/12/10 02:29:38;;;;;;;4.00;1.98;;;;;;;;;;5111909;28;20020;-73
2021/12/10 02:32:07;;;;;;;3.97;1.83;;;;;;;;;;5112252;28;20376;-72
2021/12/10 02:34:33;;;;;;;3.13;1.67;;;;;;;;;;5113956;28;20028;-71
2021/12/10 02:36:59;;;;;;;3.97;1.90;;;;;;;;;;5113956;28;20115;-70
2021/12/10 02:39:27;;;;;;;3.28;1.73;;;;;;;;;;5113823;28;20192;-70
2021/12/10 02:41:53;;;;;;;3.97;2.03;;;;;;;;;;5113708;28;20038;-73
2021/12/10 02:44:27;;;;;;;2.85;1.80;;;;;;;;;;5113595;28;20110;-70
2021/12/10 02:46:53;;;;;;;4.25;1.80;;;;;;;;;;5113712;28;20115;-71
2021/12/10 02:49:20;;;;;;;4.03;1.90;;;;;;;;;;5113651;28;20057;-73
2021/12/10 02:51:46;;;;;;;4.63;1.77;;;;;;;;;;5113589;28;20063;-71
2021/12/10 02:54:16;;;;;;;3.80;1.83;;;;;;;;;;5113668;28;20095;-72
2021/12/10 02:56:42;;;;;;;5.97;2.17;;;;;;;;;;5113573;28;20038;-72
2021/12/10 02:59:08;;;;;;;3.80;1.85;;;;;;;;;;5113658;28;20042;-72
2021/12/10 03:01:41;;;;;;;4.55;1.90;;;;;;;;;;5113443;28;20024;-72
2021/12/10 03:04:08;;;;;;;3.40;1.80;;;;;;;;;;5113014;28;20492;-72
2021/12/10 03:06:55;;;;;;;5.40;2.10;;;;;;;;;;5113517;28;20466;-72
2021/12/10 03:09:22;;;;;;;4.03;1.70;;;;;;;;;;5113572;28;20027;-72
2021/12/10 03:11:49;;;;;;;3.08;1.67;;;;;;;;;;5113401;28;20042;-71
2021/12/10 03:14:24;;;;;;;4.13;1.80;;;;;;;;;;5112222;28;20038;-72
2021/12/10 03:16:53;;;;;;;3.08;1.70;;;;;;;;;;5113467;28;20490;-70
2021/12/10 03:19:19;;;;;;;4.32;2.08;;;;;;;;;;5113474;28;20051;-71
2021/12/10 03:21:46;;;;;;;3.67;1.77;;;;;;;;;;5113532;28;20036;-70
2021/12/10 03:24:19;;;;;;;5.15;1.80;;;;;;;;;;5113011;28;20038;-70
2021/12/10 03:26:46;;;;;;;3.95;1.70;;;;;;;;;;5113432;28;20044;-74
2021/12/10 03:29:11;;;;;;;4.32;2.00;;;;;;;;;;5116993;28;20102;-70
2021/12/10 03:31:37;;;;;;;3.20;1.70;;;;;;;;;;5112898;28;20131;-70
2021/12/10 03:34:04;;;;;;;3.22;1.58;;;;;;;;;;5117138;28;20032;-74
2021/12/10 03:36:31;;;;;;;4.97;2.10;;;;;;;;;;5116598;28;20027;-72
2021/12/10 03:38:57;;;;;;;3.92;1.88;;;;;;;;;;5116872;28;20032;-71
2021/12/10 03:41:23;;;;;;;3.53;1.77;;;;;;;;;;5116748;28;20031;-73
2021/12/10 03:43:53;;;;;;;4.20;2.03;;;;;;;;;;5116660;28;20032;-72
2021/12/10 03:46:20;;;;;;;3.85;1.60;;;;;;;;;;5116454;28;20058;-72
2021/12/10 03:48:46;;;;;;;3.30;1.40;;;;;;;;;;5116518;28;20031;-71
2021/12/10 03:51:19;;;;;;;3.25;1.85;;;;;;;;;;5116572;28;20023;-71
2021/12/10 03:53:45;;;;;;;3.00;1.65;;;;;;;;;;5116686;28;20039;-72
2021/12/10 03:56:14;;;;;;;3.50;1.70;;;;;;;;;;5116136;28;20046;-73
2021/12/10 03:58:42;;;;;;;4.68;1.60;;;;;;;;;;5116491;28;20104;-73
2021/12/10 04:01:10;;;;;;;2.97;1.40;;;;;;;;;;5116168;28;20024;-73
2021/12/10 04:03:36;;;;;;;3.70;1.45;;;;;;;;;;5116429;28;20148;-71
2021/12/10 04:06:02;;;;;;;3.45;1.65;;;;;;;;;;5116149;27;20080;-72
2021/12/10 04:08:28;;;;;;;4.60;1.70;;;;;;;;;;5116362;28;20160;-72
2021/12/10 04:10:55;;;;;;;2.70;1.40;;;;;;;;;;5116131;28;20023;-72
2021/12/10 04:13:21;;;;;;;3.15;1.40;;;;;;;;;;5116333;28;20031;-71
2021/12/10 04:15:47;;;;;;;3.08;1.30;;;;;;;;;;5115940;28;20125;-71
2021/12/10 04:18:14;;;;;;;3.10;1.50;;;;;;;;;;5115989;28;20040;-71
2021/12/10 04:20:41;;;;;;;2.70;1.35;;;;;;;;;;5115864;28;20134;-70
2021/12/10 04:23:11;;;;;;;3.28;1.30;;;;;;;;;;5114896;28;20051;-71
2021/12/10 04:25:37;;;;;;;2.60;1.20;;;;;;;;;;5115856;28;20376;-70
2021/12/10 04:28:09;;;;;;;2.13;1.20;;;;;;;;;;5115853;28;20031;-73
2021/12/10 04:30:40;;;;;;;2.10;1.10;;;;;;;;;;5111472;28;20027;-70
2021/12/10 04:33:10;;;;;;;1.88;1.00;;;;;;;;;;5115710;28;20042;-70
2021/12/10 04:35:36;;;;;;;2.33;1.17;;;;;;;;;;5115707;28;20126;-71
2021/12/10 04:38:04;;;;;;;2.20;1.20;;;;;;;;;;5115872;28;20055;-71
2021/12/10 04:40:30;;;;;;;2.45;1.27;;;;;;;;;;5115679;28;20028;-69
2021/12/10 04:42:56;;;;;;;2.35;1.20;;;;;;;;;;5114749;28;20054;-73
2021/12/10 04:45:22;;;;;;;2.75;1.20;;;;;;;;;;5115676;27;20122;-70
2021/12/10 04:47:48;;;;;;;3.45;1.20;;;;;;;;;;5115508;28;20055;-72
2021/12/10 04:50:16;;;;;;;2.28;1.02;;;;;;;;;;5115415;28;20524;-69
2021/12/10 04:52:42;;;;;;;6.40;1.67;;;;;;;;;;5115515;28;20074;-70
2021/12/10 04:55:10;;;;;;;3.97;1.70;;;;;;;;;;5114964;28;20047;-70
2021/12/10 04:57:36;;;;;;;3.85;2.10;;;;;;;;;;5115338;28;20027;-72
2021/12/10 05:00:06;;;;;;;2.90;1.80;;;;;;;;;;5115158;28;20023;-69
2021/12/10 05:02:34;;;;;;;2.78;1.45;;;;;;;;;;5115390;28;20118;-71
2021/12/10 05:05:00;;;;;;;2.40;1.10;;;;;;;;;;5113932;28;20561;-73
2021/12/10 05:07:30;;;;;;;2.75;1.38;;;;;;;;;;5115237;28;20023;-73
2021/12/10 05:09:56;;;;;;;1.70;1.10;;;;;;;;;;5114180;28;20023;-73
2021/12/10 05:12:22;;;;;;;1.92;1.08;;;;;;;;;;5115007;28;20027;-71
2021/12/10 05:14:48;;;;;;;1.98;1.15;;;;;;;;;;5114689;28;20200;-72
2021/12/10 05:17:14;;;;;;;4.32;1.45;;;;;;;;;;5114970;28;20368;-72
2021/12/10 05:19:41;;;;;;;2.00;1.20;;;;;;;;;;5114536;28;20480;-74
2021/12/10 05:22:09;;;;;;;2.63;1.30;;;;;;;;;;5114587;28;20031;-71
2021/12/10 05:24:35;;;;;;;4.35;1.45;;;;;;;;;;5114746;28;20376;-72
2021/12/10 05:27:02;;;;;;;2.28;0.93;;;;;;;;;;5114523;28;20028;-71
2021/12/10 05:29:29;;;;;;;2.85;1.38;;;;;;;;;;5114107;28;20376;-72
2021/12/10 05:31:58;;;;;;;6.97;1.50;;;;;;;;;;5110426;28;20056;-71
2021/12/10 05:34:24;;;;;;;4.57;1.40;;;;;;;;;;5114508;28;20039;-73
2021/12/10 05:36:50;;;;;;;3.05;1.50;;;;;;;;;;5114329;28;20118;-71
2021/12/10 05:39:17;;;;;;;4.90;1.30;;;;;;;;;;5114458;28;20111;-72
2021/12/10 05:41:43;;;;;;;3.10;1.30;;;;;;;;;;5114337;28;20111;-74
2021/12/10 05:44:09;;;;;;;2.80;1.40;;;;;;;;;;5114692;28;20020;-73
2021/12/10 05:46:37;;;;;;;3.58;1.80;;;;;;;;;;5114169;28;20472;-73
2021/12/10 05:49:03;;;;;;;2.55;1.50;;;;;;;;;;5114603;28;20042;-72
2021/12/10 05:51:30;;;;;;;4.85;1.77;;;;;;;;;;5114028;28;20027;-71
2021/12/10 05:53:56;;;;;;;4.38;1.77;;;;;;;;;;5114266;28;20038;-73
2021/12/10 05:56:21;;;;;;;2.85;1.38;;;;;;;;;;5114000;28;20035;-73
2021/12/10 05:58:48;;;;;;;3.10;1.50;;;;;;;;;;5114199;28;20099;-70
2021/12/10 06:01:15;;;;;;;4.82;1.70;;;;;;;;;;5113976;28;20034;-72
2021/12/10 06:03:51;;;;;;;4.10;1.83;;;;;;;;;;5114139;28;20027;-71
2021/12/10 06:06:18;;;;;;;4.45;1.70;;;;;;;;;;5113737;28;20353;-73
2021/12/10 06:08:44;;;;;;;4.35;1.90;;;;;;;;;;5114057;28;20527;-72
2021/12/10 06:11:09;;;;;;;3.83;1.73;;;;;;;;;;5113950;28;20115;-70
2021/12/10 06:13:35;;;;;;;3.58;1.60;;;;;;;;;;5113975;28;20055;-73
2021/12/10 06:16:02;;;;;;;4.07;1.65;;;;;;;;;;5113465;28;20102;-72
2021/12/10 06:18:28;;;;;;;4.57;1.52;;;;;;;;;;5114014;28;20084;-71
2021/12/10 06:20:55;;;;;;;8.18;2.00;;;;;;;;;;5113748;28;20040;-73
2021/12/10 06:23:22;;;;;;;4.80;1.80;;;;;;;;;;5113819;28;20039;-74
2021/12/10 06:25:49;;;;;;;6.30;1.75;;;;;;;;;;5113692;28;20035;-72
2021/12/10 06:28:15;;;;;;;5.32;1.80;;;;;;;;;;5113919;28;20038;-73
2021/12/10 06:30:44;;;;;;;3.88;1.75;;;;;;;;;;5108399;28;20460;-71
2021/12/10 06:33:15;;;;;;;6.72;1.88;;;;;;;;;;5113779;28;20028;-69
2021/12/10 06:35:44;;;;;;;6.15;1.73;;;;;;;;;;5113921;28;20034;-73
2021/12/10 06:38:10;;;;;;;6.25;1.90;;;;;;;;;;5113755;28;20023;-73
2021/12/10 06:40:38;;;;;;;5.72;2.22;;;;;;;;;;5113706;28;20400;-73
2021/12/10 06:43:05;;;;;;;5.72;1.77;;;;;;;;;;5113596;28;20119;-70
2021/12/10 06:45:33;;;;;;;5.32;1.63;;;;;;;;;;5113562;28;20035;-72
2021/12/10 06:48:01;;;;;;;5.15;1.85;;;;;;;;;;5113602;28;20019;-72
2021/12/10 06:50:31;;;;;;;3.38;1.70;;;;;;;;;;5113489;28;20058;-72
2021/12/10 06:52:57;;;;;;;3.72;1.52;;;;;;;;;;5113704;28;20388;-72
2021/12/10 06:55:24;;;;;;;5.20;1.60;;;;;;;;;;5113136;28;20035;-71
2021/12/10 06:57:50;;;;;;;4.40;1.80;;;;;;;;;;5113671;28;20062;-71
2021/12/10 07:00:47;;;;;;;3.63;1.60;;;;;;;;;;5113409;28;20483;-72
2021/12/10 07:03:17;;;;;;;4.28;1.58;;;;;;;;;;5098354;28;20501;-71
2021/12/10 07:05:44;;;;;;;3.63;1.80;;;;;;;;;;5117825;28;20954;-71
2021/12/10 07:08:10;;;;;;;4.05;1.73;;;;;;;;;;5116416;28;20480;-73
2021/12/10 07:10:37;;;;;;;5.68;2.33;;;;;;;;;;5117460;28;20102;-72
2021/12/10 07:13:06;;;;;;;4.15;2.08;;;;;;;;;;5117379;28;20824;-69
2021/12/10 07:15:33;;;;;;;5.85;2.00;;;;;;;;;;5117304;28;20464;-72
2021/12/10 07:17:59;;;;;;;3.45;1.73;;;;;;;;;;5117209;27;20055;-73
2021/12/10 07:20:25;;;;;;;5.97;2.78;;;;;;;;;;5116723;28;20391;-70
2021/12/10 07:22:52;;;;;;;5.10;1.70;;;;;;;;;;5117219;28;20110;-71
2021/12/10 07:25:19;;;;;;;5.38;1.40;;;;;;;;;;5117009;28;20031;-73
2021/12/10 07:27:45;;;;;;;5.45;2.63;;;;;;;;;;5115854;28;20027;-73
2021/12/10 07:30:11;;;;;;;7.70;3.33;;;;;;;;;;5110929;28;20137;-71
2021/12/10 07:32:37;;;;;;;9.77;5.00;;;;;;;;;;5117096;28;20484;-73
2021/12/10 07:35:06;;;;;;;8.30;2.92;;;;;;;;;;5116847;28;20050;-70
2021/12/10 07:37:32;;;;;;;5.43;2.00;;;;;;;;;;5116540;28;20032;-73
2021/12/10 07:39:58;;;;;;;4.80;2.08;;;;;;;;;;5116731;27;20074;-73
2021/12/10 07:42:24;;;;;;;6.18;2.20;;;;;;;;;;5116581;28;20073;-72
2021/12/10 07:44:50;;;;;;;7.90;3.38;;;;;;;;;;5116813;28;20031;-70
2021/12/10 07:47:16;;;;;;;9.73;3.80;;;;;;;;;;5116279;28;20088;-70
2021/12/10 07:49:43;;;;;;;8.02;4.25;;;;;;;;;;5116713;28;20110;-72
2021/12/10 07:52:16;;;;;;;8.00;3.70;;;;;;;;;;5116831;27;20031;-70
2021/12/10 07:54:44;;;;;;;8.43;3.55;;;;;;;;;;5116488;28;20035;-72
2021/12/10 07:57:10;;;;;;;9.60;4.25;;;;;;;;;;5116430;28;20035;-69
2021/12/10 07:59:36;;;;;;;11.73;4.13;;;;;;;;;;5116384;28;20039;-70
2021/12/10 08:02:03;;;;;;;10.48;4.53;;;;;;;;;;5116337;28;20028;-72
2021/12/10 08:04:29;;;;;;;12.93;4.35;;;;;;;;;;5115322;28;20039;-72
2021/12/10 08:06:55;;;;;;;12.40;4.32;;;;;;;;;;5116088;28;20364;-69
2021/12/10 08:09:20;;;;;;;10.32;4.40;;;;;;;;;;5116271;28;20035;-70
2021/12/10 08:11:46;;;;;;;12.65;5.90;;;;;;;;;;5115929;28;20379;-70
2021/12/10 08:14:12;;;;;;;9.60;4.32;;;;;;;;;;5115702;28;20106;-72
2021/12/10 08:16:39;;;;;;;8.85;4.43;;;;;;;;;;5115792;28;20027;-70
2021/12/10 08:19:06;;;;;;;8.30;3.58;;;;;;;;;;5115613;28;20039;-70
2021/12/10 08:21:32;;;;;;;7.90;3.47;;;;;;;;;;5115910;28;20043;-73
2021/12/10 08:23:58;;;;;;;6.88;3.05;;;;;;;;;;5115948;28;20023;-71
2021/12/10 08:26:24;;;;;;;11.27;3.38;;;;;;;;;;5115460;28;20073;-72
2021/12/10 08:28:51;;;;;;;7.68;3.53;;;;;;;;;;5115949;28;20031;-70
2021/12/10 08:31:17;;;;;;;7.82;3.67;;;;;;;;;;5109519;28;20224;-71
2021/12/10 08:33:47;;;;;;;11.55;4.70;;;;;;;;;;5115598;28;20058;-72
2021/12/10 08:36:14;;;;;;;12.10;3.58;;;;;;;;;;5115545;28;20419;-70
2021/12/10 08:38:40;;;;;;;10.63;4.90;;;;;;;;;;5115541;28;20028;-72
2021/12/10 08:41:12;;;;;;;8.55;3.85;;;;;;;;;;5115464;28;20054;-69
2021/12/10 08:43:38;;;;;;;8.52;2.83;;;;;;;;;;5115765;28;20511;-72
2021/12/10 08:46:05;;;;;;;6.70;3.17;;;;;;;;;;5115271;28;20452;-71
2021/12/10 08:48:33;;;;;;;4.97;2.60;;;;;;;;;;5115400;28;20055;-74
2021/12/10 08:51:04;;;;;;;7.85;3.30;;;;;;;;;;5115452;28;20107;-74
2021/12/10 08:53:30;;;;;;;5.70;3.03;;;;;;;;;;5115456;28;20077;-70
2021/12/10 08:55:57;;;;;;;6.53;3.15;;;;;;;;;;5115463;28;20035;-73
2021/12/10 08:58:23;;;;;;;5.13;2.67;;;;;;;;;;5114788;28;20047;-71
2021/12/10 09:01:04;;;;;;;5.93;2.70;;;;;;;;;;5115226;28;20055;-70
2021/12/10 09:03:32;;;;;;;5.68;2.80;;;;;;;;;;5115339;28;20024;-70
2021/12/10 09:05:58;;;;;;;8.32;3.33;;;;;;;;;;5115253;28;20023;-71
2021/12/10 09:08:24;;;;;;;5.63;3.17;;;;;;;;;;5114691;28;20081;-71
2021/12/10 09:10:50;;;;;;;4.22;2.33;;;;;;;;;;5115284;28;20451;-70
2021/12/10 09:13:20;;;;;;;4.97;2.30;;;;;;;;;;5115070;28;20496;-72
2021/12/10 09:15:49;;;;;;;6.28;2.60;;;;;;;;;;5114802;28;20032;-71
2021/12/10 09:18:15;;;;;;;3.90;2.42;;;;;;;;;;5114577;28;20074;-69
2021/12/10 09:20:44;;;;;;;5.90;2.28;;;;;;;;;;5114669;28;20425;-70
2021/12/10 09:23:13;;;;;;;5.35;2.22;;;;;;;;;;5114820;28;20084;-73
2021/12/10 09:25:41;;;;;;;4.55;1.85;;;;;;;;;;5114094;28;20024;-72
2021/12/10 09:28:07;;;;;;;5.53;2.03;;;;;;;;;;5114643;28;20027;-70
2021/12/10 09:30:35;;;;;;;5.88;2.67;;;;;;;;;;5107635;28;20024;-70
2021/12/10 09:33:01;;;;;;;5.75;2.75;;;;;;;;;;5114748;28;20451;-69
2021/12/10 09:35:29;;;;;;;7.72;2.83;;;;;;;;;;5114770;28;20040;-69
2021/12/10 09:37:56;;;;;;;5.88;2.92;;;;;;;;;;5114466;28;20023;-73
2021/12/10 09:40:29;;;;;;;7.65;3.97;;;;;;;;;;5114296;28;20088;-68
2021/12/10 09:42:55;;;;;;;9.05;3.60;;;;;;;;;;5114359;28;20050;-68
2021/12/10 09:45:23;;;;;;;10.95;4.25;;;;;;;;;;5114537;28;20028;-72
2021/12/10 09:47:50;;;;;;;9.32;4.13;;;;;;;;;;5114348;28;20053;-72
2021/12/10 09:50:18;;;;;;;10.27;5.13;;;;;;;;;;5114291;28;20103;-68
2021/12/10 09:52:43;;;;;;;17.98;7.68;;;;;;;;;;5114340;28;20106;-73
2021/12/10 09:55:13;;;;;;;18.23;7.50;;;;;;;;;;5114302;28;20519;-72
2021/12/10 09:57:39;;;;;;;16.23;6.95;;;;;;;;;;5114010;27;20058;-73
2021/12/10 10:00:18;;;;;;;14.52;6.43;;;;;;;;;;5113978;27;20034;-71
2021/12/10 10:02:44;;;;;;;16.48;6.25;;;;;;;;;;5114143;28;20028;-72
2021/12/10 10:05:10;;;;;;;10.52;5.13;;;;;;;;;;5114147;28;20426;-72
2021/12/10 10:07:37;;;;;;;13.02;4.68;;;;;;;;;;5113778;28;20035;-71
2021/12/10 10:10:11;;;;;;;10.73;4.43;;;;;;;;;;5113944;28;20019;-72
2021/12/10 10:12:40;;;;;;;14.55;4.00;;;;;;;;;;5114019;28;20120;-69
2021/12/10 10:15:11;;;;;;;8.57;3.80;;;;;;;;;;5113904;28;20110;-71
2021/12/10 10:17:38;;;;;;;6.88;3.00;;;;;;;;;;5113808;28;20031;-69
2021/12/10 10:20:06;;;;;;;6.75;2.97;;;;;;;;;;5113626;28;20507;-72
2021/12/10 10:22:32;;;;;;;5.90;2.88;;;;;;;;;;5114020;28;20051;-69
2021/12/10 10:24:58;;;;;;;5.68;2.85;;;;;;;;;;5113931;28;20387;-70
2021/12/10 10:27:32;;;;;;;7.95;2.83;;;;;;;;;;5113427;28;20047;-70
2021/12/10 10:30:06;;;;;;;6.78;2.83;;;;;;;;;;5109067;28;20032;-70
2021/12/10 10:32:33;;;;;;;4.65;2.55;;;;;;;;;;5112312;28;20023;-70
2021/12/10 10:35:05;;;;;;;6.68;2.72;;;;;;;;;;5113872;28;20102;-73
2021/12/10 10:37:33;;;;;;;4.50;2.55;;;;;;;;;;5116748;28;20499;-71
2021/12/10 10:40:00;;;;;;;4.57;2.40;;;;;;;;;;5117958;28;20457;-73
2021/12/10 10:42:29;;;;;;;4.50;2.40;;;;;;;;;;5117808;28;20053;-72
2021/12/10 10:44:58;;;;;;;5.78;2.30;;;;;;;;;;5117945;28;20063;-72
2021/12/10 10:47:24;;;;;;;7.18;2.50;;;;;;;;;;5117396;28;20027;-73
2021/12/10 10:49:54;;;;;;;7.03;2.25;;;;;;;;;;5117871;28;20038;-71
2021/12/10 10:52:35;;;;;;;5.25;2.53;;;;;;;;;;5117628;28;20032;-70
2021/12/10 10:55:12;;;;;;;4.78;2.67;;;;;;;;;;5117744;28;20066;-73
2021/12/10 10:57:50;;;;;;;6.28;3.15;;;;;;;;;;5117339;28;20110;-74
2021/12/10 11:00:16;;;;;;;8.18;3.67;;;;;;;;;;5117786;28;20031;-74
2021/12/10 11:02:51;;;;;;;7.15;3.65;;;;;;;;;;5117462;28;20027;-72
2021/12/10 11:05:18;;;;;;;6.60;3.47;;;;;;;;;;5117515;28;20036;-72
2021/12/10 11:07:51;;;;;;;8.00;3.53;;;;;;;;;;5117216;28;20035;-72
2021/12/10 11:10:40;;;;;;;5.20;2.75;;;;;;;;;;5117404;28;20071;-73
2021/12/10 11:13:23;;;;;;;10.52;5.68;;;;;;;;;;5117481;28;20042;-71
2021/12/10 11:16:00;;;;;;;6.97;3.50;;;;;;;;;;5117211;27;20468;-71
2021/12/10 11:18:28;;;;;;;6.90;3.00;;;;;;;;;;5117091;28;20023;-74
2021/12/10 11:20:54;;;;;;;8.50;3.22;;;;;;;;;;5115997;28;20039;-70
2021/12/10 11:23:25;;;;;;;4.32;2.42;;;;;;;;;;5117239;28;20092;-70
2021/12/10 11:25:53;;;;;;;3.88;2.17;;;;;;;;;;5117258;28;20031;-74
2021/12/10 11:28:25;;;;;;;4.70;2.45;;;;;;;;;;5116829;28;20123;-71
2021/12/10 11:31:07;;;;;;;3.00;1.52;;;;;;;;;;5108949;28;20482;-74
2021/12/10 11:33:36;;;;;;;3.22;1.80;;;;;;;;;;5116963;28;20031;-69
2021/12/10 11:36:14;;;;;;;2.28;1.50;;;;;;;;;;5116888;28;20039;-70
2021/12/10 11:38:45;;;;;;;3.15;1.60;;;;;;;;;;5116674;28;20476;-73
2021/12/10 11:41:18;;;;;;;4.07;1.80;;;;;;;;;;5116649;28;20057;-71
2021/12/10 11:46:46;;;;;;;1.30;0.80;;;;;;;;;;5117044;28;20150;-73
2021/12/10 11:49:28;;;;;;;1.13;0.57;;;;;;;;;;5115762;28;20053;-72
2021/12/10 11:52:00;;;;;;;1.50;0.80;;;;;;;;;;5116816;28;20046;-74
2021/12/10 11:54:41;;;;;;;1.58;0.70;;;;;;;;;;5116597;28;20038;-72
2021/12/10 11:57:17;;;;;;;1.35;0.63;;;;;;;;;;5116710;28;20031;-75
2021/12/10 11:59:48;;;;;;;1.48;0.70;;;;;;;;;;5116270;28;20043;-74
2021/12/10 12:02:18;;;;;;;0.77;0.47;;;;;;;;;;5115562;28;20036;-73
2021/12/10 12:04:48;;;;;;;1.13;0.55;;;;;;;;;;5116168;28;20088;-75
2021/12/10 12:07:35;;;;;;;1.35;0.57;;;;;;;;;;5116503;28;20039;-71
2021/12/10 12:10:05;;;;;;;1.85;0.70;;;;;;;;;;5116340;28;20147;-73
2021/12/10 12:12:39;;;;;;;1.33;0.60;;;;;;;;;;5116480;28;20077;-74
2021/12/10 12:15:34;;;;;;;1.55;0.73;;;;;;;;;;5116361;28;20027;-74
2021/12/10 12:18:04;;;;;;;1.98;0.68;;;;;;;;;;5115939;28;20082;-74
2021/12/10 12:20:43;;;;;;;1.38;0.77;;;;;;;;;;5115868;28;20046;-74
2021/12/10 12:26:09;;;;;;;1.27;0.73;;;;;;;;;;5116256;28;20070;-72
2021/12/10 12:28:39;;;;;;;2.17;1.05;;;;;;;;;;5115526;28;20031;-71
2021/12/10 12:31:22;;;;;;;2.30;1.00;;;;;;;;;;5115800;28;20103;-71
2021/12/10 12:34:02;;;;;;;2.22;0.75;;;;;;;;;;5115914;28;20089;-74
2021/12/10 12:36:49;;;;;;;1.52;0.70;;;;;;;;;;5115803;28;20377;-73
2021/12/10 12:39:29;;;;;;;1.38;0.70;;;;;;;;;;5115477;28;20024;-72
2021/12/10 12:41:56;;;;;;;1.17;0.60;;;;;;;;;;5115670;28;20027;-75
2021/12/10 12:44:39;;;;;;;0.95;0.60;;;;;;;;;;5115585;28;20058;-73
2021/12/10 12:47:39;;;;;;;0.70;0.32;;;;;;;;;;5115801;28;20027;-74
2021/12/10 12:50:18;;;;;;;1.33;0.43;;;;;;;;;;5107776;28;20047;-72
2021/12/10 12:52:46;;;;;;;0.93;0.52;;;;;;;;;;5115332;28;20031;-74
2021/12/10 12:55:14;;;;;;;2.28;0.50;;;;;;;;;;5115537;28;20027;-72
2021/12/10 12:58:11;;;;;;;2.05;0.63;;;;;;;;;;5115229;28;20031;-73
2021/12/10 13:00:47;;;;;;;0.40;0.30;;;;;;;;;;5114135;28;20035;-74
2021/12/10 13:03:18;;;;;;;1.30;0.30;;;;;;;;;;5115276;28;20028;-72
2021/12/10 13:05:53;;;;;;;0.57;0.20;;;;;;;;;;5114968;28;20457;-72
2021/12/10 13:08:27;;;;;;;2.75;0.60;;;;;;;;;;5114929;27;20023;-71
2021/12/10 13:11:05;;;;;;;3.35;0.80;;;;;;;;;;5115054;28;20047;-74
2021/12/10 13:13:36;;;;;;;3.17;0.80;;;;;;;;;;5114962;28;20070;-75
2021/12/10 13:16:07;;;;;;;1.10;0.47;;;;;;;;;;5115060;28;20031;-71
2021/12/10 13:18:37;;;;;;;2.72;0.30;;;;;;;;;;5114964;28;20064;-72
2021/12/10 13:21:05;;;;;;;1.13;0.45;;;;;;;;;;5114470;28;20039;-74
2021/12/10 13:23:30;;;;;;;1.17;0.70;;;;;;;;;;5114748;28;20061;-71
2021/12/10 13:25:59;;;;;;;3.65;0.90;;;;;;;;;;5114906;28;20032;-73
2021/12/10 13:28:25;;;;;;;4.82;0.90;;;;;;;;;;5114471;28;20031;-69
2021/12/10 13:30:56;;;;;;;3.90;0.70;;;;;;;;;;5114352;28;20368;-71
2021/12/10 13:33:31;;;;;;;1.02;0.50;;;;;;;;;;5114741;28;20114;-71
2021/12/10 13:35:58;;;;;;;0.98;0.47;;;;;;;;;;5114710;28;20028;-74
2021/12/10 13:38:25;;;;;;;1.27;0.35;;;;;;;;;;5114408;28;20027;-72
2021/12/10 13:40:52;;;;;;;1.10;0.50;;;;;;;;;;5114437;28;20027;-73
2021/12/10 13:43:19;;;;;;;2.67;0.68;;;;;;;;;;5114479;28;20482;-71
2021/12/10 13:45:49;;;;;;;1.63;0.70;;;;;;;;;;5114354;28;20047;-72
2021/12/10 13:48:16;;;;;;;3.00;1.08;;;;;;;;;;5113262;28;20492;-70
2021/12/10 13:50:53;;;;;;;4.32;1.05;;;;;;;;;;5114454;28;20132;-73
2021/12/10 13:53:25;;;;;;;3.10;1.48;;;;;;;;;;5114424;28;20031;-73
2021/12/10 13:55:59;;;;;;;3.33;1.10;;;;;;;;;;5114381;28;20035;-71
2021/12/10 13:58:33;;;;;;;10.27;1.70;;;;;;;;;;5114066;28;20046;-71
2021/12/10 14:01:11;;;;;;;1.33;0.60;;;;;;;;;;5113980;28;20036;-74
2021/12/10 14:03:45;;;;;;;5.93;1.10;;;;;;;;;;5113972;28;20032;-72
2021/12/10 14:06:21;;;;;;;3.08;1.25;;;;;;;;;;5114364;28;20092;-75
2021/12/10 14:09:14;;;;;;;10.43;3.67;;;;;;;;;;5113844;28;20124;-73
2021/12/10 14:11:57;;;;;;;3.47;1.30;;;;;;;;;;5108871;28;20036;-71
2021/12/10 14:14:34;;;;;;;7.35;1.90;;;;;;;;;;5113859;28;20034;-71
2021/12/10 14:17:04;;;;;;;7.40;3.38;;;;;;;;;;5114089;28;20031;-75
2021/12/10 14:19:46;;;;;;;7.57;2.50;;;;;;;;;;5113560;28;20121;-71
2021/12/10 14:22:16;;;;;;;4.18;1.17;;;;;;;;;;5113730;28;20051;-71
2021/12/10 14:24:51;;;;;;;3.42;1.65;;;;;;;;;;5113824;27;20034;-73
2021/12/10 14:27:22;;;;;;;3.08;1.30;;;;;;;;;;5113813;28;20114;-73
2021/12/10 14:30:05;;;;;;;;;;;;;;;;;;5112846;28;20085;-71
2021/12/10 14:32:31;;;;;;;2.70;1.58;;;;;;;;;;5113883;28;19949;-74
2021/12/10 14:35:06;;;;;;;1.92;0.88;;;;;;;;;;5113800;28;20106;-71
2021/12/10 14:37:59;;;;;;;2.90;1.40;;;;;;;;;;5113821;28;20111;-73
2021/12/10 14:40:32;;;;;;;3.45;1.60;;;;;;;;;;5108798;28;20384;-73
2021/12/10 14:43:20;;;;;;;3.15;1.00;;;;;;;;;;5113760;28;20400;-72
2021/12/10 14:46:13;;;;;;;2.35;1.10;;;;;;;;;;5113525;28;20038;-73
2021/12/10 14:49:18;;;;;;;2.15;0.90;;;;;;;;;;5113258;28;20242;-69
2021/12/10 14:51:46;;;;;;;5.03;1.00;;;;;;;;;;5113481;28;20479;-72
2021/12/10 14:54:18;;;;;;;2.03;0.80;;;;;;;;;;5113698;28;20032;-73
2021/12/10 14:56:59;;;;;;;6.65;1.00;;;;;;;;;;5113613;28;20028;-73
2021/12/10 14:59:28;;;;;;;3.00;0.90;;;;;;;;;;5112494;28;20091;-74
2021/12/10 15:02:06;;;;;;;1.15;0.75;;;;;;;;;;5113251;28;21341;-70
2021/12/10 15:04:38;;;;;;;2.10;0.95;;;;;;;;;;5113535;28;20032;-72
2021/12/10 15:07:24;;;;;;;1.58;0.80;;;;;;;;;;5113826;28;20059;-72
2021/12/10 15:09:55;;;;;;;2.40;1.25;;;;;;;;;;5113220;28;20479;-73
2021/12/10 15:12:21;;;;;;;2.72;0.98;;;;;;;;;;5113351;28;20055;-71
2021/12/10 15:14:58;;;;;;;2.80;0.80;;;;;;;;;;5113373;28;20043;-74
2021/12/10 15:17:32;;;;;;;3.75;0.90;;;;;;;;;;5113380;28;20055;-71